KBLV

Scott AFB / Midamerica Airport

Belleville, Illinois, USA
METAR KBLV 212056Z AUTO 16008KT 10SM CLR 13/M05 A3028 RMK AO2 SLP260 T01281048 57026 $
Observed Flight Rules
Oct-21 @ 20:56 UTC (19 minutes ago) Visual Flight Rules
Wind Visibility Clouds
160° at 8 knots 10 miles
  • Clear skies
Temperatures Readings
Current 13°C / 55°F
Dewpoint -5°C / 23°F
Humidity 28%
Altimeter 30.28" Hg
Pressure 1026 hPa
Elevation 138
METAR KBLV 212056Z AUTO 16008KT 10SM CLR 13/M05 A3028 RMK AO2 SLP260 T01281048 57026 $
Observed Flight Rules
Oct-21 @ 20:56 UTC
(19 minutes ago)
VFR
Wind Visibility
160° at 8 knots 10 miles
Clouds
  • Clear skies
Temperature Dewpoint
13°C / 55°F -5°C / 23°F
Humidity Altimeter Pressure
28% 30.28" Hg 1026 hPa